createdAt,value
2018-02-07T00:00:30.097Z,45.50
2018-02-07T00:03:13.045Z,44.00
2018-02-07T00:05:51.192Z,43.90
2018-02-07T00:08:30.675Z,43.90
2018-02-07T00:11:09.175Z,45.10
2018-02-07T00:13:49.787Z,45.00
2018-02-07T00:16:29.484Z,44.90
2018-02-07T00:19:08.950Z,44.00
2018-02-07T00:21:47.454Z,44.00
2018-02-07T00:24:26.133Z,45.50
2018-02-07T00:27:05.463Z,44.90
2018-02-07T00:29:45.084Z,45.40
2018-02-07T00:32:23.623Z,45.20
2018-02-07T00:35:02.145Z,45.50
2018-02-07T00:37:42.738Z,45.70
2018-02-07T00:40:21.213Z,46.20
2018-02-07T00:43:02.877Z,46.00
2018-02-07T00:45:43.567Z,45.60
2018-02-07T00:48:23.210Z,45.60
2018-02-07T00:51:01.818Z,44.50
2018-02-07T00:53:41.233Z,44.40
2018-02-07T00:56:20.830Z,44.50
2018-02-07T00:59:00.347Z,45.50
2018-02-07T01:01:40.959Z,46.80
2018-02-07T01:04:20.590Z,47.20
2018-02-07T01:07:02.256Z,44.40
2018-02-07T01:09:42.738Z,44.40
2018-02-07T01:12:23.464Z,44.10
2018-02-07T01:15:03.191Z,44.00
2018-02-07T01:17:43.664Z,44.80
2018-02-07T01:20:22.507Z,46.20
2018-02-07T01:23:01.049Z,47.40
2018-02-07T01:25:41.569Z,47.40
2018-02-07T01:28:21.011Z,46.50
2018-02-07T01:31:00.468Z,44.50
2018-02-07T01:33:39.082Z,45.20
2018-02-07T01:36:25.632Z,44.90
2018-02-07T01:39:04.159Z,46.40
2018-02-07T01:41:47.506Z,46.80
2018-02-07T01:44:27.279Z,48.50
2018-02-07T01:47:08.721Z,48.90
2018-02-07T01:49:50.564Z,49.50
2018-02-07T01:52:31.857Z,49.40
2018-02-07T01:55:11.355Z,50.50
2018-02-07T01:57:51.922Z,49.90
2018-02-07T02:03:14.839Z,52.10
2018-02-07T02:05:54.472Z,53.90
2018-02-07T02:08:33.050Z,53.70
2018-02-07T02:11:13.721Z,55.60
2018-02-07T02:13:55.352Z,55.60
2018-02-07T02:16:34.126Z,56.50
2018-02-07T02:19:15.510Z,58.40
2018-02-07T02:21:55.695Z,58.90
2018-02-07T02:24:35.280Z,59.40
2018-02-07T02:27:14.815Z,60.10
2018-02-07T02:29:56.058Z,60.30
2018-02-07T02:32:35.377Z,60.60
2018-02-07T02:35:13.182Z,61.20
2018-02-07T02:37:52.834Z,61.90
2018-02-07T02:40:30.618Z,63.30
2018-02-07T02:43:09.067Z,63.90
2018-02-07T02:45:47.902Z,63.90
2018-02-07T02:48:27.466Z,64.70
2018-02-07T02:51:06.113Z,65.20
2018-02-07T02:53:45.980Z,66.00
2018-02-07T02:56:24.907Z,65.70
2018-02-07T02:59:03.252Z,66.50
2018-02-07T03:01:42.886Z,67.00
2018-02-07T03:04:21.530Z,67.20
2018-02-07T03:07:00.232Z,67.10
2018-02-07T03:09:38.832Z,67.70
2018-02-07T03:12:18.280Z,67.80
2018-02-07T03:14:56.450Z,68.30
2018-02-07T03:17:36.911Z,68.80
2018-02-07T03:20:15.565Z,71.00
2018-02-07T03:22:54.449Z,71.60
2018-02-07T03:25:35.876Z,71.50
2018-02-07T03:28:14.670Z,71.30
2018-02-07T03:30:53.175Z,71.10
2018-02-07T03:33:32.058Z,71.10
2018-02-07T03:36:10.093Z,71.90
2018-02-07T03:38:49.627Z,71.80
2018-02-07T03:41:28.371Z,71.90
2018-02-07T03:44:07.897Z,72.00
2018-02-07T03:46:47.412Z,71.60
2018-02-07T03:49:26.966Z,72.10
2018-02-07T03:52:05.178Z,72.10
2018-02-07T03:54:44.926Z,72.90
2018-02-07T03:57:26.585Z,72.80
2018-02-07T04:00:07.109Z,72.90
2018-02-07T04:02:45.583Z,72.80
2018-02-07T04:05:26.333Z,72.70
2018-02-07T04:08:04.837Z,72.70
2018-02-07T04:10:48.217Z,72.20
2018-02-07T04:13:26.174Z,72.00
2018-02-07T04:16:04.540Z,72.10
2018-02-07T04:18:43.234Z,72.40
2018-02-07T04:21:21.620Z,72.70
2018-02-07T04:24:03.170Z,72.70
2018-02-07T04:26:42.641Z,72.40
2018-02-07T04:29:22.125Z,72.10
2018-02-07T04:32:01.949Z,71.40
2018-02-07T04:34:41.567Z,71.50
2018-02-07T04:37:21.249Z,71.60
2018-02-07T04:39:59.738Z,71.40
2018-02-07T04:42:39.322Z,71.20
2018-02-07T04:45:17.838Z,71.10
2018-02-07T04:47:56.408Z,71.00
2018-02-07T04:50:35.062Z,70.70
2018-02-07T04:53:13.806Z,70.30
2018-02-07T04:55:52.483Z,69.30
2018-02-07T04:58:31.436Z,69.80
2018-02-07T05:01:09.870Z,69.30
2018-02-07T05:03:48.651Z,68.60
2018-02-07T05:06:29.266Z,68.70
2018-02-07T05:09:07.830Z,69.20
2018-02-07T05:14:26.731Z,69.70
2018-02-07T05:17:05.185Z,70.00
2018-02-07T05:19:44.053Z,69.70
2018-02-07T05:22:25.646Z,68.80
2018-02-07T05:25:06.084Z,68.70
2018-02-07T05:27:46.141Z,68.50
2018-02-07T05:30:24.350Z,68.60
2018-02-07T05:33:03.815Z,69.60
2018-02-07T05:35:42.329Z,69.60
2018-02-07T05:38:21.044Z,68.90
2018-02-07T05:40:59.501Z,67.70
2018-02-07T05:43:39.156Z,67.90
2018-02-07T05:46:21.177Z,68.20
2018-02-07T05:48:59.622Z,68.60
2018-02-07T05:51:37.596Z,69.50
2018-02-07T05:54:18.164Z,68.90
2018-02-07T05:56:58.725Z,68.80
2018-02-07T05:59:37.671Z,68.80
2018-02-07T06:02:16.041Z,69.10
2018-02-07T06:04:55.712Z,69.50
2018-02-07T06:07:34.540Z,69.60
2018-02-07T06:10:13.398Z,68.60
2018-02-07T06:12:52.384Z,69.50
2018-02-07T06:15:31.098Z,69.70
2018-02-07T06:18:09.473Z,69.60
2018-02-07T06:20:48.128Z,69.60
2018-02-07T06:23:26.845Z,70.40
2018-02-07T06:26:05.379Z,70.10
2018-02-07T06:28:44.101Z,69.80
2018-02-07T06:31:23.821Z,69.10
2018-02-07T06:34:02.578Z,69.90
2018-02-07T06:36:43.520Z,69.40
2018-02-07T06:39:22.223Z,69.70
2018-02-07T06:42:01.774Z,69.70
2018-02-07T06:44:40.426Z,69.70
2018-02-07T06:47:19.151Z,69.30
2018-02-07T06:49:58.869Z,69.20
2018-02-07T06:52:37.563Z,69.40
2018-02-07T06:55:16.295Z,69.20
2018-02-07T06:57:55.029Z,69.50
2018-02-07T07:00:33.771Z,69.40
2018-02-07T07:03:12.470Z,69.90
2018-02-07T07:05:51.383Z,70.30
2018-02-07T07:08:30.104Z,70.20
2018-02-07T07:11:08.816Z,70.40
2018-02-07T07:13:47.429Z,71.80
2018-02-07T07:16:26.137Z,72.50
2018-02-07T07:19:06.010Z,73.20
2018-02-07T07:21:44.936Z,73.20
2018-02-07T07:24:23.656Z,73.60
2018-02-07T07:27:02.836Z,73.70
2018-02-07T07:29:41.709Z,74.00
2018-02-07T07:32:20.275Z,74.20
2018-02-07T07:34:58.952Z,74.80
2018-02-07T07:37:37.544Z,75.20
2018-02-07T07:40:17.447Z,75.10
2018-02-07T07:42:56.203Z,75.00
2018-02-07T07:45:37.903Z,74.40
2018-02-07T07:48:16.547Z,74.40
2018-02-07T07:50:55.165Z,74.00
2018-02-07T07:53:34.079Z,73.80
2018-02-07T07:56:13.202Z,74.70
2018-02-07T07:58:53.616Z,75.40
2018-02-07T08:01:31.469Z,75.80
2018-02-07T08:04:10.216Z,76.70
2018-02-07T08:06:48.079Z,77.00
2018-02-07T08:09:26.812Z,77.40
2018-02-07T08:12:05.173Z,77.30
2018-02-07T08:14:46.084Z,77.20
2018-02-07T08:17:24.883Z,76.50
2018-02-07T08:20:03.717Z,75.90
2018-02-07T08:22:42.290Z,76.50
2018-02-07T08:25:21.158Z,76.70
2018-02-07T08:27:59.497Z,76.70
2018-02-07T08:30:41.460Z,76.90
2018-02-07T08:33:21.227Z,76.90
2018-02-07T08:35:59.857Z,76.90
2018-02-07T08:38:40.605Z,76.70
2018-02-07T08:41:21.387Z,76.30
2018-02-07T08:44:01.929Z,75.60
2018-02-07T08:46:41.526Z,75.60
2018-02-07T08:49:20.138Z,75.30
2018-02-07T08:51:58.830Z,75.30
2018-02-07T08:54:37.554Z,75.20
2018-02-07T08:57:18.531Z,74.70
2018-02-07T08:59:57.436Z,74.70
2018-02-07T09:02:35.379Z,74.90
2018-02-07T09:05:14.073Z,74.70
2018-02-07T09:07:52.860Z,74.60
2018-02-07T09:10:31.890Z,74.30
2018-02-07T09:13:10.660Z,74.50
2018-02-07T09:15:49.569Z,75.80
2018-02-07T09:18:28.269Z,76.40
2018-02-07T09:21:06.789Z,76.00
2018-02-07T09:23:45.519Z,74.60
2018-02-07T09:26:25.046Z,74.50
2018-02-07T09:29:03.794Z,74.60
2018-02-07T09:31:42.576Z,75.60
2018-02-07T09:34:22.223Z,75.40
2018-02-07T09:37:01.156Z,75.10
2018-02-07T09:39:40.052Z,74.90
2018-02-07T09:42:25.852Z,75.50
2018-02-07T09:45:04.411Z,75.40
2018-02-07T09:47:42.915Z,75.90
2018-02-07T09:50:22.001Z,76.80
2018-02-07T09:53:00.638Z,78.40
2018-02-07T09:55:40.252Z,79.40
2018-02-07T09:58:20.480Z,80.30
2018-02-07T10:00:58.842Z,80.40
2018-02-07T10:03:37.697Z,80.90
2018-02-07T10:06:16.608Z,80.70
2018-02-07T10:08:55.339Z,81.20
2018-02-07T10:11:34.245Z,81.00
2018-02-07T10:14:13.004Z,81.70
2018-02-07T10:16:51.476Z,83.50
2018-02-07T10:19:30.076Z,84.10
2018-02-07T10:22:09.697Z,84.10
2018-02-07T10:24:48.282Z,84.00
2018-02-07T10:27:26.953Z,84.20
2018-02-07T10:30:05.739Z,84.00
2018-02-07T10:32:44.645Z,83.80
2018-02-07T10:35:23.084Z,83.80
2018-02-07T10:38:01.596Z,82.40
2018-02-07T10:40:38.075Z,82.70
2018-02-07T10:43:16.958Z,82.70
2018-02-07T10:45:55.890Z,82.60
2018-02-07T10:48:34.612Z,82.60
2018-02-07T10:51:13.174Z,81.50
2018-02-07T10:53:51.856Z,80.90
2018-02-07T10:56:30.585Z,81.90
2018-02-07T10:59:09.175Z,81.80
2018-02-07T11:01:47.998Z,81.30
2018-02-07T11:04:26.748Z,81.60
2018-02-07T11:07:05.553Z,82.20
2018-02-07T11:09:44.075Z,82.80
2018-02-07T11:12:23.163Z,83.40
2018-02-07T11:15:01.790Z,84.40
2018-02-07T11:17:40.479Z,85.00
2018-02-07T11:20:20.432Z,84.00
2018-02-07T11:22:59.408Z,83.90
2018-02-07T11:25:38.116Z,84.10
2018-02-07T11:28:16.838Z,84.50
2018-02-07T11:30:55.473Z,84.70
2018-02-07T11:33:34.339Z,86.20
2018-02-07T11:36:14.218Z,87.30
2018-02-07T11:38:52.962Z,87.20
2018-02-07T11:41:31.047Z,87.40
2018-02-07T11:44:09.342Z,87.20
2018-02-07T11:46:48.104Z,86.20
2018-02-07T11:49:25.762Z,86.00
2018-02-07T11:52:04.275Z,85.10
2018-02-07T11:54:44.046Z,85.00
2018-02-07T11:57:22.866Z,85.10
2018-02-07T12:00:01.473Z,84.60
2018-02-07T12:02:40.199Z,84.00
2018-02-07T12:05:18.698Z,85.20
2018-02-07T12:07:57.427Z,85.10
2018-02-07T12:10:35.596Z,85.60
2018-02-07T12:13:15.376Z,85.60
2018-02-07T12:15:53.989Z,85.60
2018-02-07T12:18:32.800Z,85.70
2018-02-07T12:21:11.528Z,85.10
2018-02-07T12:23:50.338Z,83.90
2018-02-07T12:26:28.869Z,83.80
2018-02-07T12:29:08.612Z,84.80
2018-02-07T12:31:48.671Z,84.30
2018-02-07T12:34:27.111Z,84.50
2018-02-07T12:37:05.787Z,84.50
2018-02-07T12:39:45.504Z,85.20
2018-02-07T12:42:25.591Z,85.00
2018-02-07T12:45:04.139Z,85.10
2018-02-07T12:47:42.827Z,85.40
2018-02-07T12:50:21.561Z,85.00
2018-02-07T12:53:00.068Z,85.20
2018-02-07T12:55:38.740Z,85.20
2018-02-07T12:58:17.712Z,85.70
2018-02-07T13:00:56.624Z,85.70
2018-02-07T13:03:35.143Z,85.70
2018-02-07T13:06:14.602Z,85.80
2018-02-07T13:08:54.338Z,85.80
2018-02-07T13:11:36.316Z,85.80
2018-02-07T13:14:14.847Z,85.70
2018-02-07T13:16:53.554Z,85.80
2018-02-07T13:19:32.289Z,85.50
2018-02-07T13:22:10.644Z,85.50
2018-02-07T13:24:48.487Z,85.40
2018-02-07T13:27:27.377Z,85.60
2018-02-07T13:30:06.235Z,85.90
2018-02-07T13:32:43.838Z,86.20
2018-02-07T13:35:22.565Z,85.90
2018-02-07T13:38:01.478Z,85.90
2018-02-07T13:40:40.088Z,85.60
2018-02-07T13:43:18.818Z,85.00
2018-02-07T13:45:58.755Z,85.00
2018-02-07T13:48:37.514Z,84.90
2018-02-07T13:51:15.664Z,84.50
2018-02-07T13:53:54.135Z,86.00
2018-02-07T13:56:32.948Z,87.00
2018-02-07T13:59:10.840Z,88.40
2018-02-07T14:01:49.747Z,89.40
2018-02-07T14:04:28.486Z,88.40
2018-02-07T14:07:07.198Z,87.30
2018-02-07T14:09:45.888Z,87.60
2018-02-07T14:12:24.449Z,87.50
2018-02-07T14:15:02.856Z,88.10
2018-02-07T14:17:41.457Z,87.90
2018-02-07T14:20:21.207Z,87.80
2018-02-07T14:23:00.148Z,87.80
2018-02-07T14:25:38.566Z,87.80
2018-02-07T14:28:17.264Z,88.80
2018-02-07T14:30:55.952Z,89.20
2018-02-07T14:33:33.676Z,89.50
2018-02-07T14:36:12.503Z,89.80
2018-02-07T14:38:51.227Z,89.60
2018-02-07T14:41:29.889Z,89.40
2018-02-07T14:44:08.647Z,89.30
2018-02-07T14:46:48.612Z,89.10
2018-02-07T14:49:26.993Z,89.00
2018-02-07T14:52:05.856Z,89.10
2018-02-07T14:54:44.592Z,89.30
2018-02-07T14:57:22.470Z,89.20
2018-02-07T15:00:01.466Z,89.00
2018-02-07T15:02:39.813Z,88.80
2018-02-07T15:05:18.260Z,89.50
2018-02-07T15:07:57.939Z,89.40
2018-02-07T15:10:37.772Z,89.30
2018-02-07T15:13:16.418Z,89.10
2018-02-07T15:15:54.856Z,89.30
2018-02-07T15:18:33.432Z,89.00
2018-02-07T15:21:12.168Z,89.40
2018-02-07T15:23:52.316Z,90.00
2018-02-07T15:26:32.735Z,90.00
2018-02-07T15:29:11.479Z,90.20
2018-02-07T15:31:50.125Z,89.90
2018-02-07T15:34:28.653Z,90.00
2018-02-07T15:37:07.483Z,89.40
2018-02-07T15:39:46.180Z,89.40
2018-02-07T15:42:25.741Z,89.80
2018-02-07T15:45:04.355Z,89.80
2018-02-07T15:47:43.151Z,90.10
2018-02-07T15:50:23.635Z,90.30
2018-02-07T15:53:02.355Z,90.20
2018-02-07T15:55:43.058Z,90.40
2018-02-07T15:58:22.789Z,90.40
2018-02-07T16:01:03.426Z,90.30
2018-02-07T16:03:43.118Z,89.70
2018-02-07T16:06:21.701Z,89.60
2018-02-07T17:15:07.012Z,37.10
2018-02-07T17:17:46.561Z,43.50
2018-02-07T17:20:26.026Z,43.80
2018-02-07T17:23:05.524Z,39.90
2018-02-07T17:25:44.134Z,39.80
2018-02-07T17:28:22.616Z,37.30
2018-02-07T17:31:01.840Z,36.40
2018-02-07T17:33:41.390Z,35.00
2018-02-07T17:36:20.867Z,35.00
2018-02-07T17:38:58.282Z,33.20
2018-02-07T17:41:39.841Z,35.90
2018-02-07T17:44:18.537Z,35.80
2018-02-07T17:46:59.928Z,34.50
2018-02-07T17:49:39.228Z,34.90
2018-02-07T17:52:19.620Z,35.70
2018-02-07T17:54:59.132Z,31.80
2018-02-07T17:57:38.730Z,31.80
2018-02-07T18:00:17.085Z,31.10
2018-02-07T18:02:56.511Z,29.10
2018-02-07T18:05:37.068Z,28.50
2018-02-07T18:08:16.708Z,28.50
2018-02-07T18:10:57.328Z,27.80
2018-02-07T18:13:36.940Z,27.70
2018-02-07T18:16:16.294Z,26.60
2018-02-07T18:18:55.747Z,27.20
2018-02-07T18:21:35.108Z,26.40
2018-02-07T18:24:13.541Z,28.80
2018-02-07T18:26:56.641Z,27.20
2018-02-07T18:29:35.483Z,27.10
2018-02-07T18:32:15.864Z,28.90
2018-02-07T18:34:55.295Z,28.90
2018-02-07T18:37:35.688Z,28.70
2018-02-07T18:40:15.224Z,27.30
2018-02-07T18:42:53.591Z,26.40
2018-02-07T18:45:33.966Z,26.40
2018-02-07T18:48:13.388Z,26.40
2018-02-07T18:50:52.934Z,27.20
2018-02-07T18:53:32.516Z,28.60
2018-02-07T18:56:11.898Z,26.80
2018-02-07T18:58:51.367Z,28.60
2018-02-07T19:01:30.877Z,26.80
2018-02-07T19:04:11.283Z,27.00
2018-02-07T19:06:50.703Z,26.80
2018-02-07T19:09:30.250Z,27.70
2018-02-07T19:14:49.902Z,27.10
2018-02-07T19:17:28.410Z,27.20
2018-02-07T19:20:07.408Z,27.60
2018-02-07T19:22:47.423Z,27.90
2018-02-07T19:25:27.675Z,28.00
2018-02-07T19:28:07.072Z,27.90
2018-02-07T19:30:45.371Z,27.30
2018-02-07T19:33:23.895Z,27.70
2018-02-07T19:36:03.441Z,28.80
2018-02-07T19:38:42.796Z,28.00
2018-02-07T19:41:22.474Z,26.90
2018-02-07T19:44:01.890Z,27.80
2018-02-07T19:46:42.369Z,27.30
2018-02-07T19:49:20.599Z,27.90
2018-02-07T19:51:59.000Z,27.20
2018-02-07T19:54:38.258Z,27.60
2018-02-07T19:57:17.620Z,27.00
2018-02-07T19:59:56.192Z,27.60
2018-02-07T20:02:35.737Z,27.20
2018-02-07T20:05:16.087Z,26.70
2018-02-07T20:07:55.344Z,25.00
2018-02-07T20:10:33.775Z,26.60
2018-02-07T20:13:15.276Z,26.80
2018-02-07T20:15:54.766Z,26.80
2018-02-07T20:18:34.224Z,26.20
2018-02-07T20:21:13.571Z,27.10
2018-02-07T20:23:53.043Z,26.20
2018-02-07T20:26:33.477Z,27.70
2018-02-07T20:29:16.230Z,31.40
2018-02-07T20:31:54.701Z,31.30
2018-02-07T20:34:34.082Z,32.20
2018-02-07T20:37:12.683Z,34.80
2018-02-07T20:39:51.893Z,35.00
2018-02-07T20:42:31.414Z,35.00
2018-02-07T20:45:11.085Z,33.90
2018-02-07T20:47:51.301Z,35.70
2018-02-07T20:50:30.772Z,35.00
2018-02-07T20:53:11.145Z,38.50
2018-02-07T20:55:52.467Z,39.50
2018-02-07T20:58:31.826Z,39.50
2018-02-07T21:01:11.317Z,41.10
2018-02-07T21:03:49.782Z,38.90
2018-02-07T21:06:28.189Z,39.70
2018-02-07T21:09:06.665Z,41.40
2018-02-07T21:11:44.999Z,41.50
2018-02-07T21:14:23.301Z,41.60
2018-02-07T21:17:02.852Z,41.90
2018-02-07T21:19:41.471Z,41.60
2018-02-07T21:22:20.759Z,39.00
2018-02-07T21:24:59.138Z,39.10
2018-02-07T21:27:38.638Z,42.00
2018-02-07T21:30:18.801Z,41.00
2018-02-07T21:32:58.267Z,38.30
2018-02-07T21:35:36.629Z,38.80
2018-02-07T21:38:16.145Z,39.90
2018-02-07T21:40:54.529Z,40.60
2018-02-07T21:43:34.088Z,37.80
2018-02-07T21:46:12.594Z,39.00
2018-02-07T21:48:51.136Z,34.90
2018-02-07T21:51:31.553Z,35.30
2018-02-07T21:54:10.962Z,35.30
2018-02-07T21:56:50.401Z,35.60
2018-02-07T21:59:31.103Z,35.80
2018-02-07T22:02:09.630Z,37.40
2018-02-07T22:04:50.961Z,35.10
2018-02-07T22:07:30.481Z,35.00
2018-02-07T22:10:09.956Z,35.20
2018-02-07T22:12:49.386Z,35.20
2018-02-07T22:15:28.909Z,34.00
2018-02-07T22:18:07.204Z,35.00
2018-02-07T22:20:46.695Z,36.20
2018-02-07T22:23:26.027Z,33.50
2018-02-07T22:26:05.263Z,36.20
2018-02-07T22:28:44.649Z,36.60
2018-02-07T22:31:24.164Z,35.50
2018-02-07T22:34:03.664Z,34.10
2018-02-07T22:36:42.090Z,33.20
2018-02-07T22:39:21.629Z,34.40
2018-02-07T22:41:59.847Z,33.40
2018-02-07T22:44:41.311Z,35.60
2018-02-07T22:47:20.895Z,35.50
2018-02-07T22:50:01.385Z,33.00
2018-02-07T22:52:39.745Z,33.00
2018-02-07T22:55:19.368Z,34.00
2018-02-07T22:57:58.786Z,33.80
2018-02-07T23:00:38.070Z,33.00
2018-02-07T23:03:16.429Z,31.50
2018-02-07T23:05:55.756Z,33.60
2018-02-07T23:08:34.134Z,32.60
2018-02-07T23:11:13.471Z,32.50
2018-02-07T23:13:54.027Z,33.40
2018-02-07T23:16:34.513Z,32.60
2018-02-07T23:19:12.864Z,32.40
2018-02-07T23:21:52.380Z,33.50
2018-02-07T23:24:31.592Z,30.90
2018-02-07T23:27:10.999Z,30.80
2018-02-07T23:29:49.464Z,31.30
2018-02-07T23:32:28.727Z,32.00
2018-02-07T23:35:07.363Z,31.20
2018-02-07T23:37:46.835Z,32.50
2018-02-07T23:40:27.356Z,31.40
2018-02-07T23:43:07.059Z,31.90
2018-02-07T23:45:47.014Z,32.70
2018-02-07T23:48:27.537Z,33.50
2018-02-07T23:51:06.071Z,33.60
2018-02-07T23:53:46.388Z,33.60
2018-02-07T23:56:24.726Z,35.00
2018-02-07T23:59:05.751Z,33.70
